createdAt,value
2018-11-03T00:01:30.065Z,7.33
2018-11-03T00:04:01.956Z,11.30
2018-11-03T00:06:32.474Z,7.62
2018-11-03T00:09:04.042Z,7.05
2018-11-03T00:11:33.712Z,7.00
2018-11-03T00:14:02.311Z,6.75
2018-11-03T00:16:31.203Z,6.20
2018-11-03T00:19:01.516Z,6.68
2018-11-03T00:21:31.635Z,6.40
2018-11-03T00:23:59.655Z,6.07
2018-11-03T00:26:30.175Z,7.07
2018-11-03T00:28:58.795Z,6.50
2018-11-03T00:31:30.402Z,6.57
2018-11-03T00:33:58.959Z,7.27
2018-11-03T00:36:27.545Z,6.70
2018-11-03T00:38:57.586Z,7.18
2018-11-03T00:41:26.151Z,6.70
2018-11-03T00:43:56.229Z,7.03
2018-11-03T00:46:24.733Z,7.43
2018-11-03T00:48:53.836Z,6.97
2018-11-03T00:51:25.419Z,6.65
2018-11-03T00:53:53.935Z,6.90
2018-11-03T00:56:22.551Z,7.25
2018-11-03T00:58:51.135Z,6.70
2018-11-03T01:01:19.824Z,6.95
2018-11-03T01:03:48.388Z,7.00
2018-11-03T01:06:17.666Z,7.00
2018-11-03T01:08:47.821Z,6.30
2018-11-03T01:11:17.908Z,7.43
2018-11-03T01:13:49.665Z,7.50
2018-11-03T01:16:19.384Z,7.28
2018-11-03T01:18:48.472Z,7.55
2018-11-03T01:21:17.060Z,7.60
2018-11-03T01:23:48.681Z,7.28
2018-11-03T01:26:17.300Z,7.12
2018-11-03T01:28:47.437Z,7.50
2018-11-03T01:31:19.339Z,7.62
2018-11-03T01:33:47.894Z,7.50
2018-11-03T01:36:18.014Z,6.87
2018-11-03T01:38:47.238Z,6.75
2018-11-03T01:41:15.770Z,6.78
2018-11-03T01:43:45.051Z,7.45
2018-11-03T01:46:13.559Z,7.25
2018-11-03T01:48:44.284Z,6.95
2018-11-03T01:51:12.851Z,7.80
2018-11-03T01:53:41.468Z,6.90
2018-11-03T01:56:10.058Z,8.48
2018-11-03T01:58:38.596Z,8.10
2018-11-03T02:01:07.318Z,7.73
2018-11-03T02:03:35.904Z,7.93
2018-11-03T02:06:06.105Z,7.43
2018-11-03T02:08:34.697Z,7.72
2018-11-03T02:11:07.341Z,8.10
2018-11-03T02:13:39.463Z,7.00
2018-11-03T02:16:10.492Z,7.47
2018-11-03T02:18:39.044Z,7.20
2018-11-03T02:21:07.642Z,7.40
2018-11-03T02:23:37.765Z,6.87
2018-11-03T02:26:07.872Z,7.13
2018-11-03T02:28:38.127Z,6.97
2018-11-03T02:31:09.275Z,8.00
2018-11-03T02:33:39.447Z,8.35
2018-11-03T02:36:08.053Z,8.30
2018-11-03T02:38:38.046Z,7.53
2018-11-03T02:41:06.543Z,8.67
2018-11-03T02:43:36.965Z,16.48
2018-11-03T02:46:05.259Z,7.90
2018-11-03T02:48:35.579Z,6.87
2018-11-03T02:51:05.883Z,11.53
2018-11-03T02:53:34.403Z,9.10
2018-11-03T02:56:02.972Z,5.97
2018-11-03T02:58:31.526Z,7.93
2018-11-03T03:01:01.676Z,7.90
2018-11-03T03:03:31.762Z,5.93
2018-11-03T03:06:01.774Z,5.63
2018-11-03T03:08:31.899Z,7.90
2018-11-03T03:11:01.043Z,10.50
2018-11-03T03:13:31.131Z,9.57
2018-11-03T03:15:58.839Z,7.43
2018-11-03T03:18:28.840Z,6.07
2018-11-03T03:20:57.496Z,6.30
2018-11-03T03:23:26.281Z,5.27
2018-11-03T03:25:56.323Z,6.28
2018-11-03T03:28:27.034Z,5.67
2018-11-03T03:30:55.901Z,5.12
2018-11-03T03:33:23.752Z,6.70
2018-11-03T03:35:51.745Z,8.57
2018-11-03T03:38:21.897Z,9.40
2018-11-03T03:40:50.576Z,6.47
2018-11-03T03:43:20.942Z,9.07
2018-11-03T03:45:51.334Z,9.77
2018-11-03T03:48:20.017Z,10.40
2018-11-03T03:50:50.145Z,9.83
2018-11-03T03:53:20.393Z,9.93
2018-11-03T03:55:48.936Z,9.10
2018-11-03T03:58:17.505Z,9.47
2018-11-03T04:00:46.278Z,9.53
2018-11-03T04:03:16.426Z,9.25
2018-11-03T04:05:45.408Z,10.27
2018-11-03T04:08:15.504Z,8.80
2018-11-03T04:10:45.741Z,9.43
2018-11-03T04:13:17.361Z,9.93
2018-11-03T04:15:45.880Z,9.73
2018-11-03T04:18:14.360Z,9.80
2018-11-03T04:20:44.369Z,9.73
2018-11-03T04:23:14.710Z,9.40
2018-11-03T04:25:45.078Z,9.17
2018-11-03T04:28:13.558Z,11.07
2018-11-03T04:30:41.744Z,9.97
2018-11-03T04:33:12.487Z,9.70
2018-11-03T04:35:45.231Z,9.90
2018-11-03T04:38:15.671Z,9.60
2018-11-03T04:40:45.742Z,9.80
2018-11-03T04:43:16.147Z,10.13
2018-11-03T04:45:46.248Z,10.05
2018-11-03T04:48:16.009Z,10.07
2018-11-03T04:50:46.081Z,10.60
2018-11-03T04:53:16.255Z,10.33
2018-11-03T04:55:47.902Z,10.63
2018-11-03T04:58:18.364Z,10.10
2018-11-03T05:00:50.024Z,10.77
2018-11-03T05:03:17.951Z,9.67
2018-11-03T05:05:48.596Z,11.10
2018-11-03T05:08:17.264Z,11.43
2018-11-03T05:10:47.316Z,10.20
2018-11-03T05:13:17.698Z,10.77
2018-11-03T05:15:46.909Z,11.50
2018-11-03T05:18:18.382Z,11.30
2018-11-03T05:20:47.358Z,11.40
2018-11-03T05:23:18.926Z,11.63
2018-11-03T05:25:48.957Z,10.50
2018-11-03T05:28:19.159Z,10.97
2018-11-03T05:30:50.790Z,11.33
2018-11-03T05:33:20.974Z,11.50
2018-11-03T05:35:52.574Z,10.80
2018-11-03T05:38:22.750Z,11.87
2018-11-03T05:40:52.769Z,11.87
2018-11-03T05:43:21.351Z,12.83
2018-11-03T05:45:51.396Z,11.43
2018-11-03T05:48:21.505Z,12.53
2018-11-03T05:50:50.104Z,14.33
2018-11-03T05:53:20.200Z,13.57
2018-11-03T05:55:48.745Z,14.50
2018-11-03T05:58:18.118Z,13.10
2018-11-03T06:00:48.295Z,13.57
2018-11-03T06:03:18.353Z,13.13
2018-11-03T06:05:46.997Z,12.77
2018-11-03T06:08:17.130Z,11.70
2018-11-03T06:10:45.796Z,13.03
2018-11-03T06:13:17.544Z,12.67
2018-11-03T06:15:48.981Z,13.43
2018-11-03T06:18:20.519Z,13.47
2018-11-03T06:20:49.270Z,14.70
2018-11-03T06:23:19.913Z,13.60
2018-11-03T06:25:50.096Z,13.60
2018-11-03T06:28:18.781Z,14.77
2018-11-03T06:30:48.925Z,13.53
2018-11-03T06:33:19.093Z,14.02
2018-11-03T06:35:51.612Z,13.93
2018-11-03T06:38:20.211Z,13.73
2018-11-03T06:40:48.883Z,14.00
2018-11-03T06:43:20.538Z,12.17
2018-11-03T06:45:50.597Z,13.60
2018-11-03T06:48:19.235Z,14.27
2018-11-03T06:50:47.931Z,15.40
2018-11-03T06:53:18.288Z,13.50
2018-11-03T06:55:48.446Z,14.57
2018-11-03T06:58:17.152Z,13.53
2018-11-03T07:00:47.212Z,13.23
2018-11-03T07:03:15.854Z,12.13
2018-11-03T07:05:44.631Z,12.10
2018-11-03T07:08:13.343Z,11.80
2018-11-03T07:10:43.449Z,13.07
2018-11-03T07:13:13.693Z,13.32
2018-11-03T07:15:43.632Z,13.47
2018-11-03T07:18:15.453Z,13.47
2018-11-03T07:20:46.545Z,13.10
2018-11-03T07:23:18.124Z,13.00
2018-11-03T07:25:46.714Z,12.80
2018-11-03T07:28:15.829Z,13.23
2018-11-03T07:30:44.585Z,14.55
2018-11-03T07:33:14.727Z,12.93
2018-11-03T07:35:43.867Z,12.25
2018-11-03T07:38:15.468Z,11.45
2018-11-03T07:40:44.089Z,11.68
2018-11-03T07:43:14.381Z,11.83
2018-11-03T07:45:44.355Z,11.18
2018-11-03T07:48:14.621Z,12.35
2018-11-03T07:50:44.617Z,10.55
2018-11-03T07:53:14.847Z,11.95
2018-11-03T07:55:44.992Z,11.15
2018-11-03T07:58:16.692Z,11.25
2018-11-03T08:00:46.937Z,10.82
2018-11-03T08:03:16.969Z,11.50
2018-11-03T08:05:47.124Z,12.32
2018-11-03T08:08:17.509Z,13.38
2018-11-03T08:10:46.273Z,11.40
2018-11-03T08:13:16.418Z,12.23
2018-11-03T08:15:47.093Z,12.45
2018-11-03T08:18:15.530Z,12.00
2018-11-03T08:20:44.139Z,12.13
2018-11-03T08:23:14.943Z,12.55
2018-11-03T08:25:44.578Z,11.80
2018-11-03T08:28:14.633Z,11.80
2018-11-03T08:30:43.365Z,11.80
2018-11-03T08:33:13.493Z,11.30
2018-11-03T08:35:42.305Z,12.45
2018-11-03T08:38:12.409Z,12.13
2018-11-03T08:40:42.516Z,12.27
2018-11-03T08:43:11.724Z,11.73
2018-11-03T08:45:42.229Z,11.65
2018-11-03T08:48:11.082Z,11.70
2018-11-03T08:50:39.660Z,10.75
2018-11-03T08:53:09.941Z,12.07
2018-11-03T08:55:40.079Z,11.82
2018-11-03T08:58:08.688Z,11.55
2018-11-03T09:00:38.825Z,11.23
2018-11-03T09:03:07.451Z,10.35
2018-11-03T09:05:36.835Z,11.48
2018-11-03T09:08:07.049Z,11.02
2018-11-03T09:10:35.738Z,10.80
2018-11-03T09:13:05.882Z,10.23
2018-11-03T09:15:36.074Z,11.68
2018-11-03T09:18:07.704Z,11.43
2018-11-03T09:20:36.349Z,11.90
2018-11-03T09:23:06.389Z,11.43
2018-11-03T09:25:36.675Z,11.23
2018-11-03T09:28:06.737Z,11.00
2018-11-03T09:30:38.191Z,11.57
2018-11-03T09:33:08.780Z,12.52
2018-11-03T09:35:37.336Z,12.00
2018-11-03T09:38:06.674Z,11.63
2018-11-03T09:40:36.744Z,11.93
2018-11-03T09:43:05.419Z,11.93
2018-11-03T09:45:34.038Z,11.77
2018-11-03T09:48:02.602Z,11.98
2018-11-03T09:50:31.512Z,12.05
2018-11-03T09:53:00.079Z,11.98
2018-11-03T09:55:30.707Z,12.20
2018-11-03T09:57:59.895Z,11.55
2018-11-03T10:00:29.927Z,12.13
2018-11-03T10:02:58.492Z,11.90
2018-11-03T10:05:27.625Z,12.65
2018-11-03T10:07:57.713Z,12.80
2018-11-03T10:10:27.707Z,11.68
2018-11-03T10:12:56.339Z,12.88
2018-11-03T10:15:24.888Z,13.05
2018-11-03T10:17:53.500Z,11.88
2018-11-03T10:20:22.700Z,12.43
2018-11-03T10:22:52.849Z,14.05
2018-11-03T10:25:22.013Z,13.40
2018-11-03T10:27:53.604Z,12.45
2018-11-03T10:30:25.086Z,13.07
2018-11-03T10:32:55.205Z,14.45
2018-11-03T10:35:25.583Z,13.10
2018-11-03T10:37:55.718Z,13.18
2018-11-03T10:40:24.247Z,14.50
2018-11-03T10:42:55.795Z,13.93
2018-11-03T10:45:27.387Z,16.17
2018-11-03T10:47:58.838Z,13.18
2018-11-03T10:50:28.912Z,13.50
2018-11-03T10:53:00.551Z,13.35
2018-11-03T10:55:29.908Z,13.70
2018-11-03T10:58:00.110Z,14.07
2018-11-03T11:00:47.822Z,14.00
2018-11-03T11:03:34.057Z,12.82
2018-11-03T11:06:39.770Z,14.50
2018-11-03T11:09:27.005Z,14.87
2018-11-03T11:12:14.950Z,14.73
2018-11-03T11:14:43.514Z,14.10
2018-11-03T11:17:12.100Z,14.18
2018-11-03T11:19:42.252Z,14.02
2018-11-03T11:22:10.930Z,14.25
2018-11-03T11:24:40.101Z,14.45
2018-11-03T11:27:08.595Z,14.68
2018-11-03T11:29:39.015Z,13.55
2018-11-03T11:32:09.169Z,14.20
2018-11-03T11:34:39.342Z,13.68
2018-11-03T11:37:07.730Z,14.10
2018-11-03T11:39:37.847Z,12.68
2018-11-03T11:42:07.896Z,13.77
2018-11-03T11:44:37.966Z,12.70
2018-11-03T11:47:08.053Z,12.23
2018-11-03T11:49:36.602Z,13.27
2018-11-03T11:52:06.885Z,12.82
2018-11-03T11:54:35.396Z,13.15
2018-11-03T11:57:06.911Z,12.35
2018-11-03T11:59:35.944Z,10.95
2018-11-03T12:02:06.184Z,12.65
2018-11-03T12:04:34.656Z,13.25
2018-11-03T12:07:06.189Z,10.48
2018-11-03T12:09:36.183Z,10.15
2018-11-03T12:12:04.912Z,11.48
2018-11-03T12:14:34.774Z,11.90
2018-11-03T12:17:05.263Z,9.93
2018-11-03T12:19:33.829Z,10.52
2018-11-03T12:22:03.003Z,11.45
2018-11-03T12:24:33.070Z,8.45
2018-11-03T12:27:03.151Z,10.10
2018-11-03T12:29:32.488Z,10.15
2018-11-03T12:32:02.962Z,9.98
2018-11-03T12:34:33.100Z,10.52
2018-11-03T12:37:03.096Z,7.40
2018-11-03T12:39:33.092Z,9.05
2018-11-03T12:42:01.630Z,9.18
2018-11-03T12:44:30.198Z,10.07
2018-11-03T12:46:58.681Z,8.07
2018-11-03T12:49:28.888Z,8.07
2018-11-03T12:51:59.232Z,7.97
2018-11-03T12:54:29.323Z,9.10
2018-11-03T12:56:59.443Z,8.45
2018-11-03T12:59:30.964Z,8.65
2018-11-03T13:02:00.997Z,7.65
2018-11-03T13:04:31.155Z,8.43
2018-11-03T13:06:59.731Z,9.18
2018-11-03T13:09:28.412Z,8.20
2018-11-03T13:11:59.934Z,9.15
2018-11-03T13:14:28.431Z,7.60
2018-11-03T13:16:58.496Z,8.73
2018-11-03T13:19:28.534Z,9.40
2018-11-03T13:22:00.040Z,8.30
2018-11-03T13:24:28.033Z,7.50
2018-11-03T13:26:56.564Z,7.12
2018-11-03T13:29:25.280Z,8.50
2018-11-03T13:31:53.851Z,8.02
2018-11-03T13:34:22.241Z,7.18
2018-11-03T13:36:52.288Z,7.95
2018-11-03T13:39:22.384Z,8.80
2018-11-03T13:41:51.447Z,8.07
2018-11-03T13:44:20.973Z,7.93
2018-11-03T13:46:49.449Z,7.32
2018-11-03T13:49:19.461Z,7.68
2018-11-03T13:51:49.723Z,8.18
2018-11-03T13:54:17.450Z,7.05
2018-11-03T13:56:45.947Z,7.60
2018-11-03T13:59:15.995Z,7.55
2018-11-03T14:01:46.059Z,6.62
2018-11-03T14:04:16.182Z,7.32
2018-11-03T14:06:44.751Z,7.28
2018-11-03T14:09:14.803Z,7.47
2018-11-03T14:11:46.338Z,7.00
2018-11-03T14:14:16.591Z,6.60
2018-11-03T14:16:46.598Z,8.23
2018-11-03T14:19:16.593Z,7.50
2018-11-03T14:21:45.366Z,8.27
2018-11-03T14:24:14.004Z,8.63
2018-11-03T14:26:42.940Z,8.93
2018-11-03T14:29:11.670Z,8.77
2018-11-03T14:31:40.165Z,8.60
2018-11-03T14:34:08.693Z,8.70
2018-11-03T14:36:37.506Z,8.85
2018-11-03T14:39:10.817Z,8.18
2018-11-03T14:41:39.384Z,8.68
2018-11-03T14:44:08.179Z,8.85
2018-11-03T14:46:36.735Z,8.75
2018-11-03T14:49:06.971Z,8.02
2018-11-03T14:51:37.409Z,8.73
2018-11-03T14:54:07.824Z,9.77
2018-11-03T14:56:36.406Z,9.50
2018-11-03T14:59:08.332Z,9.48
2018-11-03T15:01:36.968Z,9.43
2018-11-03T15:04:07.287Z,9.77
2018-11-03T15:06:35.998Z,10.95
2018-11-03T15:09:07.010Z,10.13
2018-11-03T15:11:37.198Z,9.40
2018-11-03T15:14:11.171Z,9.52
2018-11-03T15:16:39.602Z,10.05
2018-11-03T15:19:11.359Z,9.10
2018-11-03T15:21:41.499Z,9.50
2018-11-03T15:24:11.617Z,9.20
2018-11-03T15:26:41.945Z,8.95
2018-11-03T15:29:13.714Z,9.35
2018-11-03T15:31:45.299Z,9.52
2018-11-03T15:34:15.430Z,8.38
2018-11-03T15:36:44.054Z,9.65
2018-11-03T15:39:14.217Z,9.35
2018-11-03T15:41:44.292Z,9.27
2018-11-03T15:44:14.614Z,8.85
2018-11-03T15:46:45.553Z,8.98
2018-11-03T15:49:17.050Z,8.45
2018-11-03T15:51:48.725Z,9.20
2018-11-03T15:54:17.344Z,9.32
2018-11-03T15:56:46.533Z,9.80
2018-11-03T15:59:15.213Z,9.25
2018-11-03T16:01:45.261Z,10.80
2018-11-03T16:04:15.520Z,10.02
2018-11-03T16:06:44.332Z,10.15
2018-11-03T16:09:16.142Z,10.77
2018-11-03T16:11:46.286Z,10.43
2018-11-03T16:14:18.025Z,10.13
2018-11-03T16:16:49.703Z,10.80
2018-11-03T16:19:19.788Z,10.68
2018-11-03T16:21:48.725Z,11.15
2018-11-03T16:24:18.945Z,10.85
2018-11-03T16:26:47.537Z,10.73
2018-11-03T16:29:16.662Z,11.70
2018-11-03T16:31:46.707Z,10.77
2018-11-03T16:34:15.338Z,11.60
2018-11-03T16:36:45.647Z,11.48
2018-11-03T16:39:14.287Z,10.75
2018-11-03T16:41:45.882Z,11.07
2018-11-03T16:44:17.665Z,11.50
2018-11-03T16:46:47.810Z,11.93
2018-11-03T16:49:21.919Z,11.63
2018-11-03T16:51:52.046Z,11.20
2018-11-03T16:54:22.160Z,11.68
2018-11-03T16:56:52.454Z,12.10
2018-11-03T16:59:21.056Z,11.60
2018-11-03T17:01:51.232Z,11.82
2018-11-03T17:04:20.161Z,12.30
2018-11-03T17:06:50.472Z,12.27
2018-11-03T17:09:19.036Z,12.40
2018-11-03T17:11:47.698Z,12.07
2018-11-03T17:14:17.824Z,11.57
2018-11-03T17:16:49.346Z,12.37
2018-11-03T17:19:19.419Z,12.57
2018-11-03T17:21:49.534Z,12.30
2018-11-03T17:24:18.165Z,11.48
2018-11-03T17:26:49.971Z,12.57
2018-11-03T17:29:21.558Z,12.98
2018-11-03T17:31:50.124Z,15.07
2018-11-03T17:34:18.931Z,15.23
2018-11-03T17:36:50.423Z,15.05
2018-11-03T17:39:20.556Z,15.60
2018-11-03T17:41:51.005Z,15.82
2018-11-03T17:44:19.589Z,15.90
2018-11-03T17:46:48.227Z,17.00
2018-11-03T17:49:16.863Z,15.82
2018-11-03T17:51:48.419Z,15.55
2018-11-03T17:54:19.078Z,15.40
2018-11-03T17:56:50.713Z,15.50
2018-11-03T17:59:20.790Z,17.00
2018-11-03T18:01:50.848Z,16.12
2018-11-03T18:04:22.477Z,15.88
2018-11-03T18:06:51.180Z,16.48
2018-11-03T18:09:21.363Z,17.00
2018-11-03T18:11:51.811Z,17.37
2018-11-03T18:14:21.340Z,16.98
2018-11-03T18:16:50.543Z,17.45
2018-11-03T18:19:21.103Z,18.12
2018-11-03T18:21:51.158Z,15.50
2018-11-03T18:24:21.260Z,16.35
2018-11-03T18:26:50.728Z,15.75
2018-11-03T18:29:18.649Z,16.33
2018-11-03T18:31:50.679Z,16.17
2018-11-03T18:34:20.560Z,14.43
2018-11-03T18:36:50.632Z,15.70
2018-11-03T18:39:22.210Z,14.20
2018-11-03T18:41:50.872Z,14.55
2018-11-03T18:44:21.013Z,13.98
2018-11-03T18:46:51.232Z,14.13
2018-11-03T18:49:19.764Z,15.32
2018-11-03T18:51:48.677Z,15.00
2018-11-03T18:54:18.747Z,20.62
2018-11-03T18:56:50.350Z,18.15
2018-11-03T18:59:19.005Z,17.02
2018-11-03T19:01:48.079Z,16.80
2018-11-03T19:04:16.831Z,17.85
2018-11-03T19:06:46.922Z,16.45
2018-11-03T19:09:15.577Z,16.23
2018-11-03T19:11:44.205Z,16.90
2018-11-03T19:14:14.398Z,17.75
2018-11-03T19:16:44.455Z,17.75
2018-11-03T19:19:14.653Z,19.45
2018-11-03T19:21:43.299Z,18.00
2018-11-03T19:24:13.644Z,16.98
2018-11-03T19:26:43.771Z,18.58
2018-11-03T19:29:12.511Z,17.90
2018-11-03T19:31:43.968Z,19.05
2018-11-03T19:34:14.232Z,18.55
2018-11-03T19:36:42.889Z,18.20
2018-11-03T19:39:14.433Z,18.62
2018-11-03T19:41:44.536Z,21.25
2018-11-03T19:44:14.575Z,20.05
2018-11-03T19:46:44.640Z,20.23
2018-11-03T19:49:14.821Z,20.35
2018-11-03T19:51:45.053Z,21.83
2018-11-03T19:54:13.703Z,23.80
2018-11-03T19:56:42.583Z,22.63
2018-11-03T19:59:11.150Z,23.62
2018-11-03T20:01:41.235Z,21.25
2018-11-03T20:04:10.153Z,21.42
2018-11-03T20:06:38.805Z,20.23
2018-11-03T20:09:10.005Z,21.23
2018-11-03T20:11:41.748Z,19.50
2018-11-03T20:14:12.089Z,19.55
2018-11-03T20:16:41.718Z,21.27
2018-11-03T20:19:10.586Z,19.90
2018-11-03T20:21:39.172Z,21.02
2018-11-03T20:24:09.281Z,21.77
2018-11-03T20:26:37.970Z,20.73
2018-11-03T20:29:09.908Z,21.92
2018-11-03T20:31:41.609Z,21.23
2018-11-03T20:34:10.214Z,23.07
2018-11-03T20:36:40.238Z,22.43
2018-11-03T20:39:12.892Z,23.70
2018-11-03T20:41:43.123Z,22.13
2018-11-03T20:44:13.119Z,21.87
2018-11-03T20:46:44.911Z,21.53
2018-11-03T20:49:15.300Z,23.45
2018-11-03T20:51:43.876Z,24.50
2018-11-03T20:54:14.048Z,23.50
2018-11-03T20:56:42.209Z,24.12
2018-11-03T20:59:12.501Z,22.73
2018-11-03T21:01:44.153Z,22.73
2018-11-03T21:04:12.924Z,22.23
2018-11-03T21:06:43.130Z,18.67
2018-11-03T21:09:13.444Z,19.90
2018-11-03T21:11:43.584Z,19.33
2018-11-03T21:14:12.223Z,17.67
2018-11-03T21:16:40.997Z,19.20
2018-11-03T21:19:11.172Z,21.97
2018-11-03T21:21:42.640Z,25.60
2018-11-03T21:24:14.471Z,25.80
2018-11-03T21:26:42.966Z,25.47
2018-11-03T21:29:11.569Z,25.50
2018-11-03T21:31:40.332Z,25.73
2018-11-03T21:34:09.030Z,27.48
2018-11-03T21:36:37.149Z,26.60
2018-11-03T21:39:09.349Z,25.80
2018-11-03T21:41:40.972Z,23.70
2018-11-03T21:44:11.134Z,24.97
2018-11-03T21:46:40.315Z,25.40
2018-11-03T21:49:11.932Z,24.83
2018-11-03T21:51:42.282Z,26.15
2018-11-03T21:54:11.422Z,25.85
2018-11-03T21:56:41.558Z,25.70
2018-11-03T21:59:11.637Z,23.15
2018-11-03T22:01:43.313Z,25.00
2018-11-03T22:04:12.442Z,24.83
2018-11-03T22:06:41.195Z,23.23
2018-11-03T22:09:12.782Z,24.23
2018-11-03T22:11:42.771Z,24.20
2018-11-03T22:14:11.341Z,22.60
2018-11-03T22:16:42.813Z,22.95
2018-11-03T22:19:12.959Z,38.72
2018-11-03T22:21:42.070Z,27.90
2018-11-03T22:24:10.611Z,23.15
2018-11-03T22:26:40.628Z,23.07
2018-11-03T22:29:11.102Z,21.87
2018-11-03T22:31:41.394Z,23.60
2018-11-03T22:34:11.600Z,22.60
2018-11-03T22:36:41.714Z,20.83
2018-11-03T22:39:11.914Z,22.60
2018-11-03T22:41:41.986Z,21.80
2018-11-03T22:44:13.553Z,21.23
2018-11-03T22:46:42.459Z,20.75
2018-11-03T22:49:12.782Z,21.33
2018-11-03T22:51:41.585Z,21.13
2018-11-03T22:54:11.706Z,21.60
2018-11-03T22:56:42.018Z,21.17
2018-11-03T22:59:13.633Z,21.20
2018-11-03T23:01:43.221Z,21.23
2018-11-03T23:04:11.881Z,20.83
2018-11-03T23:06:41.977Z,22.30
2018-11-03T23:09:10.591Z,20.93
2018-11-03T23:11:39.359Z,20.13
2018-11-03T23:14:08.160Z,20.00
2018-11-03T23:16:39.796Z,20.40
2018-11-03T23:19:10.148Z,20.10
2018-11-03T23:21:39.441Z,19.50
2018-11-03T23:24:11.236Z,20.07
2018-11-03T23:26:39.781Z,20.03
2018-11-03T23:29:08.342Z,19.27
2018-11-03T23:31:36.976Z,20.92
2018-11-03T23:34:08.900Z,20.00
2018-11-03T23:36:40.567Z,20.20
2018-11-03T23:39:11.798Z,20.93
2018-11-03T23:41:40.451Z,20.90
2018-11-03T23:44:09.951Z,20.47
2018-11-03T23:46:39.080Z,20.00
2018-11-03T23:49:07.718Z,21.57
2018-11-03T23:51:39.360Z,19.87
2018-11-03T23:54:11.066Z,20.57
2018-11-03T23:56:40.206Z,19.37
2018-11-03T23:59:08.744Z,19.40
